sensor_id;sensor_type;location;lat;lon;timestamp;temperature;humidity
67641;SHT31;54434;50.096;20.082;2023-02-28T00:01:05;0.39;66.74
67641;SHT31;54434;50.096;20.082;2023-02-28T00:03:41;0.33;66.62
67641;SHT31;54434;50.096;20.082;2023-02-28T00:06:18;0.29;66.60
67641;SHT31;54434;50.096;20.082;2023-02-28T00:08:55;0.27;66.62
67641;SHT31;54434;50.096;20.082;2023-02-28T00:11:32;0.25;66.74
67641;SHT31;54434;50.096;20.082;2023-02-28T00:14:09;0.23;66.89
67641;SHT31;54434;50.096;20.082;2023-02-28T00:16:46;0.24;67.09
67641;SHT31;54434;50.096;20.082;2023-02-28T00:19:22;0.25;67.05
67641;SHT31;54434;50.096;20.082;2023-02-28T00:21:58;0.24;66.94
67641;SHT31;54434;50.096;20.082;2023-02-28T00:24:35;0.22;66.99
67641;SHT31;54434;50.096;20.082;2023-02-28T00:27:11;0.21;67.14
67641;SHT31;54434;50.096;20.082;2023-02-28T00:29:50;0.20;67.18
67641;SHT31;54434;50.096;20.082;2023-02-28T00:32:26;0.18;67.26
67641;SHT31;54434;50.096;20.082;2023-02-28T00:35:03;0.18;67.33
67641;SHT31;54434;50.096;20.082;2023-02-28T00:37:42;0.16;67.48
67641;SHT31;54434;50.096;20.082;2023-02-28T00:40:18;0.13;67.61
67641;SHT31;54434;50.096;20.082;2023-02-28T00:42:57;0.10;67.63
67641;SHT31;54434;50.096;20.082;2023-02-28T00:45:35;0.05;67.76
67641;SHT31;54434;50.096;20.082;2023-02-28T00:48:11;0.01;68.02
67641;SHT31;54434;50.096;20.082;2023-02-28T00:50:50;-0.02;68.22
67641;SHT31;54434;50.096;20.082;2023-02-28T00:53:27;-0.08;68.23
67641;SHT31;54434;50.096;20.082;2023-02-28T00:56:06;-0.14;68.27
67641;SHT31;54434;50.096;20.082;2023-02-28T00:58:43;-0.20;68.35
67641;SHT31;54434;50.096;20.082;2023-02-28T01:01:19;-0.27;68.58
67641;SHT31;54434;50.096;20.082;2023-02-28T01:03:56;-0.31;68.66
67641;SHT31;54434;50.096;20.082;2023-02-28T01:06:32;-0.36;68.66
67641;SHT31;54434;50.096;20.082;2023-02-28T01:09:09;-0.38;68.46
67641;SHT31;54434;50.096;20.082;2023-02-28T01:11:46;-0.40;68.40
67641;SHT31;54434;50.096;20.082;2023-02-28T01:14:23;-0.46;68.42
67641;SHT31;54434;50.096;20.082;2023-02-28T01:17:00;-0.52;68.68
67641;SHT31;54434;50.096;20.082;2023-02-28T01:19:38;-0.57;69.27
67641;SHT31;54434;50.096;20.082;2023-02-28T01:22:15;-0.64;69.33
67641;SHT31;54434;50.096;20.082;2023-02-28T01:24:52;-0.71;69.37
67641;SHT31;54434;50.096;20.082;2023-02-28T01:27:28;-0.78;69.74
67641;SHT31;54434;50.096;20.082;2023-02-28T01:30:08;-0.84;69.88
67641;SHT31;54434;50.096;20.082;2023-02-28T01:32:46;-0.89;69.72
67641;SHT31;54434;50.096;20.082;2023-02-28T01:35:25;-0.95;69.68
67641;SHT31;54434;50.096;20.082;2023-02-28T01:38:01;-0.99;69.89
67641;SHT31;54434;50.096;20.082;2023-02-28T01:40:52;-1.02;70.10
67641;SHT31;54434;50.096;20.082;2023-02-28T01:43:31;-1.00;70.82
67641;SHT31;54434;50.096;20.082;2023-02-28T01:46:27;-1.00;71.44
67641;SHT31;54434;50.096;20.082;2023-02-28T01:49:07;-1.01;71.33
67641;SHT31;54434;50.096;20.082;2023-02-28T01:51:50;-1.02;71.19
67641;SHT31;54434;50.096;20.082;2023-02-28T01:54:31;-1.01;71.23
67641;SHT31;54434;50.096;20.082;2023-02-28T01:57:11;-0.98;71.40
67641;SHT31;54434;50.096;20.082;2023-02-28T01:59:54;-0.96;71.48
67641;SHT31;54434;50.096;20.082;2023-02-28T02:02:45;-0.94;71.54
67641;SHT31;54434;50.096;20.082;2023-02-28T02:05:27;-0.92;71.60
67641;SHT31;54434;50.096;20.082;2023-02-28T02:08:08;-0.90;71.60
67641;SHT31;54434;50.096;20.082;2023-02-28T02:10:50;-0.89;71.70
67641;SHT31;54434;50.096;20.082;2023-02-28T02:13:37;-0.89;71.68
67641;SHT31;54434;50.096;20.082;2023-02-28T02:16:41;-0.89;71.71
67641;SHT31;54434;50.096;20.082;2023-02-28T02:19:46;-0.91;71.87
67641;SHT31;54434;50.096;20.082;2023-02-28T02:23:09;-0.93;71.90
67641;SHT31;54434;50.096;20.082;2023-02-28T02:26:31;-0.99;71.88
67641;SHT31;54434;50.096;20.082;2023-02-28T02:33:12;-1.07;72.05
67641;SHT31;54434;50.096;20.082;2023-02-28T02:36:13;-1.12;72.15
67641;SHT31;54434;50.096;20.082;2023-02-28T02:38:58;-1.18;72.12
67641;SHT31;54434;50.096;20.082;2023-02-28T02:41:47;-1.23;72.20
67641;SHT31;54434;50.096;20.082;2023-02-28T02:44:28;-1.28;72.23
67641;SHT31;54434;50.096;20.082;2023-02-28T02:47:14;-1.33;72.30
67641;SHT31;54434;50.096;20.082;2023-02-28T02:49:57;-1.39;72.37
67641;SHT31;54434;50.096;20.082;2023-02-28T02:52:44;-1.43;72.40
67641;SHT31;54434;50.096;20.082;2023-02-28T02:55:27;-1.47;72.28
67641;SHT31;54434;50.096;20.082;2023-02-28T02:58:11;-1.51;72.37
67641;SHT31;54434;50.096;20.082;2023-02-28T03:00:55;-1.56;72.52
67641;SHT31;54434;50.096;20.082;2023-02-28T03:03:36;-1.60;72.84
67641;SHT31;54434;50.096;20.082;2023-02-28T03:06:14;-1.64;72.98
67641;SHT31;54434;50.096;20.082;2023-02-28T03:08:52;-1.68;73.09
67641;SHT31;54434;50.096;20.082;2023-02-28T03:11:28;-1.74;73.37
67641;SHT31;54434;50.096;20.082;2023-02-28T03:17:27;-1.82;73.87
67641;SHT31;54434;50.096;20.082;2023-02-28T03:20:34;-1.87;74.00
67641;SHT31;54434;50.096;20.082;2023-02-28T03:23:23;-1.90;74.07
67641;SHT31;54434;50.096;20.082;2023-02-28T03:26:16;-1.93;74.30
67641;SHT31;54434;50.096;20.082;2023-02-28T03:29:03;-1.96;74.52
67641;SHT31;54434;50.096;20.082;2023-02-28T03:31:51;-2.00;74.65
67641;SHT31;54434;50.096;20.082;2023-02-28T03:34:39;-2.01;74.68
67641;SHT31;54434;50.096;20.082;2023-02-28T03:37:24;-2.03;74.48
67641;SHT31;54434;50.096;20.082;2023-02-28T03:40:08;-2.04;74.40
67641;SHT31;54434;50.096;20.082;2023-02-28T03:42:51;-2.06;74.35
67641;SHT31;54434;50.096;20.082;2023-02-28T03:45:34;-2.08;74.60
67641;SHT31;54434;50.096;20.082;2023-02-28T03:48:17;-2.11;74.70
67641;SHT31;54434;50.096;20.082;2023-02-28T03:51:00;-2.13;74.64
67641;SHT31;54434;50.096;20.082;2023-02-28T03:53:44;-2.16;74.64
67641;SHT31;54434;50.096;20.082;2023-02-28T03:56:29;-2.17;74.80
67641;SHT31;54434;50.096;20.082;2023-02-28T03:59:14;-2.19;74.87
67641;SHT31;54434;50.096;20.082;2023-02-28T04:01:58;-2.21;74.99
67641;SHT31;54434;50.096;20.082;2023-02-28T04:04:35;-2.24;75.01
67641;SHT31;54434;50.096;20.082;2023-02-28T04:07:20;-2.25;75.06
67641;SHT31;54434;50.096;20.082;2023-02-28T04:09:57;-2.27;75.11
67641;SHT31;54434;50.096;20.082;2023-02-28T04:12:34;-2.27;75.13
67641;SHT31;54434;50.096;20.082;2023-02-28T04:15:11;-2.29;75.20
67641;SHT31;54434;50.096;20.082;2023-02-28T04:17:48;-2.31;75.20
67641;SHT31;54434;50.096;20.082;2023-02-28T04:20:24;-2.34;75.22
67641;SHT31;54434;50.096;20.082;2023-02-28T04:23:01;-2.36;75.30
67641;SHT31;54434;50.096;20.082;2023-02-28T04:25:37;-2.37;75.26
67641;SHT31;54434;50.096;20.082;2023-02-28T04:28:14;-2.36;75.31
67641;SHT31;54434;50.096;20.082;2023-02-28T04:30:55;-2.37;75.39
67641;SHT31;54434;50.096;20.082;2023-02-28T04:33:34;-2.37;75.34
67641;SHT31;54434;50.096;20.082;2023-02-28T04:36:10;-2.37;75.40
67641;SHT31;54434;50.096;20.082;2023-02-28T04:38:49;-2.37;75.55
67641;SHT31;54434;50.096;20.082;2023-02-28T04:41:26;-2.40;75.38
67641;SHT31;54434;50.096;20.082;2023-02-28T04:44:04;-2.43;75.37
67641;SHT31;54434;50.096;20.082;2023-02-28T04:46:40;-2.42;75.31
67641;SHT31;54434;50.096;20.082;2023-02-28T04:49:17;-2.42;75.31
67641;SHT31;54434;50.096;20.082;2023-02-28T04:51:53;-2.43;75.41
67641;SHT31;54434;50.096;20.082;2023-02-28T04:54:30;-2.43;75.42
67641;SHT31;54434;50.096;20.082;2023-02-28T04:57:06;-2.43;75.52
67641;SHT31;54434;50.096;20.082;2023-02-28T04:59:43;-2.44;75.49
67641;SHT31;54434;50.096;20.082;2023-02-28T05:02:19;-2.46;75.36
67641;SHT31;54434;50.096;20.082;2023-02-28T05:04:56;-2.47;75.35
67641;SHT31;54434;50.096;20.082;2023-02-28T05:07:32;-2.50;75.37
67641;SHT31;54434;50.096;20.082;2023-02-28T05:10:11;-2.50;75.49
67641;SHT31;54434;50.096;20.082;2023-02-28T05:12:47;-2.52;75.50
67641;SHT31;54434;50.096;20.082;2023-02-28T05:15:24;-2.55;75.50
67641;SHT31;54434;50.096;20.082;2023-02-28T05:18:00;-2.57;75.51
67641;SHT31;54434;50.096;20.082;2023-02-28T05:20:38;-2.60;75.65
67641;SHT31;54434;50.096;20.082;2023-02-28T05:23:15;-2.60;75.76
67641;SHT31;54434;50.096;20.082;2023-02-28T05:25:55;-2.62;75.86
67641;SHT31;54434;50.096;20.082;2023-02-28T05:28:32;-2.63;75.88
67641;SHT31;54434;50.096;20.082;2023-02-28T05:31:08;-2.61;76.00
67641;SHT31;54434;50.096;20.082;2023-02-28T05:33:47;-2.62;76.01
67641;SHT31;54434;50.096;20.082;2023-02-28T05:36:24;-2.61;76.13
67641;SHT31;54434;50.096;20.082;2023-02-28T05:39:00;-2.61;76.24
67641;SHT31;54434;50.096;20.082;2023-02-28T05:41:37;-2.60;76.38
67641;SHT31;54434;50.096;20.082;2023-02-28T05:44:15;-2.58;76.50
67641;SHT31;54434;50.096;20.082;2023-02-28T05:46:52;-2.55;76.62
67641;SHT31;54434;50.096;20.082;2023-02-28T05:49:28;-2.52;76.70
67641;SHT31;54434;50.096;20.082;2023-02-28T05:52:05;-2.47;76.71
67641;SHT31;54434;50.096;20.082;2023-02-28T05:54:42;-2.42;76.72
67641;SHT31;54434;50.096;20.082;2023-02-28T05:57:20;-2.37;76.66
67641;SHT31;54434;50.096;20.082;2023-02-28T05:59:57;-2.33;76.60
67641;SHT31;54434;50.096;20.082;2023-02-28T06:02:42;-2.27;76.51
67641;SHT31;54434;50.096;20.082;2023-02-28T06:05:19;-2.20;76.43
67641;SHT31;54434;50.096;20.082;2023-02-28T06:07:57;-2.15;76.36
67641;SHT31;54434;50.096;20.082;2023-02-28T06:10:33;-2.09;76.24
67641;SHT31;54434;50.096;20.082;2023-02-28T06:13:09;-2.04;76.20
67641;SHT31;54434;50.096;20.082;2023-02-28T06:15:46;-1.98;76.24
67641;SHT31;54434;50.096;20.082;2023-02-28T06:18:23;-1.92;76.21
67641;SHT31;54434;50.096;20.082;2023-02-28T06:20:59;-1.83;76.17
67641;SHT31;54434;50.096;20.082;2023-02-28T06:23:36;-1.75;76.09
67641;SHT31;54434;50.096;20.082;2023-02-28T06:26:13;-1.65;75.93
67641;SHT31;54434;50.096;20.082;2023-02-28T06:28:49;-1.53;75.67
67641;SHT31;54434;50.096;20.082;2023-02-28T06:31:26;-1.41;75.46
67641;SHT31;54434;50.096;20.082;2023-02-28T06:34:04;-1.32;75.15
67641;SHT31;54434;50.096;20.082;2023-02-28T06:36:41;-1.22;74.89
67641;SHT31;54434;50.096;20.082;2023-02-28T06:39:18;-1.13;74.72
67641;SHT31;54434;50.096;20.082;2023-02-28T06:41:55;-1.05;74.48
67641;SHT31;54434;50.096;20.082;2023-02-28T06:44:31;-0.97;74.35
67641;SHT31;54434;50.096;20.082;2023-02-28T06:47:07;-0.90;73.95
67641;SHT31;54434;50.096;20.082;2023-02-28T06:49:44;-0.87;73.76
67641;SHT31;54434;50.096;20.082;2023-02-28T06:52:21;-0.82;73.61
67641;SHT31;54434;50.096;20.082;2023-02-28T06:54:57;-0.80;73.12
67641;SHT31;54434;50.096;20.082;2023-02-28T06:57:35;-0.76;73.07
67641;SHT31;54434;50.096;20.082;2023-02-28T07:00:14;-0.72;72.93
67641;SHT31;54434;50.096;20.082;2023-02-28T07:02:51;-0.71;72.71
67641;SHT31;54434;50.096;20.082;2023-02-28T07:05:28;-0.70;72.22
67641;SHT31;54434;50.096;20.082;2023-02-28T07:08:07;-0.68;72.21
67641;SHT31;54434;50.096;20.082;2023-02-28T07:10:44;-0.61;72.15
67641;SHT31;54434;50.096;20.082;2023-02-28T07:13:24;-0.52;71.82
67641;SHT31;54434;50.096;20.082;2023-02-28T07:16:02;-0.47;71.46
67641;SHT31;54434;50.096;20.082;2023-02-28T07:18:42;-0.41;71.33
67641;SHT31;54434;50.096;20.082;2023-02-28T07:21:19;-0.35;71.44
67641;SHT31;54434;50.096;20.082;2023-02-28T07:23:57;-0.31;71.36
67641;SHT31;54434;50.096;20.082;2023-02-28T07:26:33;-0.29;71.24
67641;SHT31;54434;50.096;20.082;2023-02-28T07:29:10;-0.26;70.97
67641;SHT31;54434;50.096;20.082;2023-02-28T07:31:46;-0.21;70.91
67641;SHT31;54434;50.096;20.082;2023-02-28T07:34:24;-0.14;70.90
67641;SHT31;54434;50.096;20.082;2023-02-28T07:37:01;0.00;70.91
67641;SHT31;54434;50.096;20.082;2023-02-28T07:39:38;0.12;70.42
67641;SHT31;54434;50.096;20.082;2023-02-28T07:42:15;0.22;70.48
67641;SHT31;54434;50.096;20.082;2023-02-28T07:44:55;0.28;70.04
67641;SHT31;54434;50.096;20.082;2023-02-28T07:47:31;0.32;69.38
67641;SHT31;54434;50.096;20.082;2023-02-28T07:50:11;0.38;69.13
67641;SHT31;54434;50.096;20.082;2023-02-28T07:52:48;0.46;68.89
67641;SHT31;54434;50.096;20.082;2023-02-28T07:55:25;0.49;68.43
67641;SHT31;54434;50.096;20.082;2023-02-28T07:58:01;0.52;68.59
67641;SHT31;54434;50.096;20.082;2023-02-28T08:00:38;0.55;68.66
67641;SHT31;54434;50.096;20.082;2023-02-28T08:03:15;0.60;68.29
67641;SHT31;54434;50.096;20.082;2023-02-28T08:05:53;0.67;68.05
67641;SHT31;54434;50.096;20.082;2023-02-28T08:08:30;0.76;67.72
67641;SHT31;54434;50.096;20.082;2023-02-28T08:11:07;0.81;67.48
67641;SHT31;54434;50.096;20.082;2023-02-28T08:13:43;0.87;67.31
67641;SHT31;54434;50.096;20.082;2023-02-28T08:16:20;0.96;67.22
67641;SHT31;54434;50.096;20.082;2023-02-28T08:18:57;1.05;67.06
67641;SHT31;54434;50.096;20.082;2023-02-28T08:21:34;1.10;66.35
67641;SHT31;54434;50.096;20.082;2023-02-28T08:24:11;1.13;65.83
67641;SHT31;54434;50.096;20.082;2023-02-28T08:26:48;1.19;65.68
67641;SHT31;54434;50.096;20.082;2023-02-28T08:29:24;1.19;64.34
67641;SHT31;54434;50.096;20.082;2023-02-28T08:32:02;1.24;64.38
67641;SHT31;54434;50.096;20.082;2023-02-28T08:34:51;1.33;64.28
67641;SHT31;54434;50.096;20.082;2023-02-28T08:37:27;1.43;63.50
67641;SHT31;54434;50.096;20.082;2023-02-28T08:40:05;1.54;63.39
67641;SHT31;54434;50.096;20.082;2023-02-28T08:42:49;1.72;63.55
67641;SHT31;54434;50.096;20.082;2023-02-28T08:45:26;1.79;61.80
67641;SHT31;54434;50.096;20.082;2023-02-28T08:48:03;1.81;60.45
67641;SHT31;54434;50.096;20.082;2023-02-28T08:50:40;1.91;60.08
67641;SHT31;54434;50.096;20.082;2023-02-28T08:53:26;2.00;59.57
67641;SHT31;54434;50.096;20.082;2023-02-28T08:56:04;2.03;59.04
67641;SHT31;54434;50.096;20.082;2023-02-28T08:58:43;2.06;58.46
67641;SHT31;54434;50.096;20.082;2023-02-28T09:01:23;2.16;58.68
67641;SHT31;54434;50.096;20.082;2023-02-28T09:04:02;2.34;57.43
67641;SHT31;54434;50.096;20.082;2023-02-28T09:06:40;2.70;58.11
67641;SHT31;54434;50.096;20.082;2023-02-28T09:09:16;3.03;56.85
67641;SHT31;54434;50.096;20.082;2023-02-28T09:11:53;3.16;54.32
67641;SHT31;54434;50.096;20.082;2023-02-28T09:14:31;3.18;53.45
67641;SHT31;54434;50.096;20.082;2023-02-28T09:17:08;3.29;53.41
67641;SHT31;54434;50.096;20.082;2023-02-28T09:19:46;3.28;53.12
67641;SHT31;54434;50.096;20.082;2023-02-28T09:22:23;3.21;52.51
67641;SHT31;54434;50.096;20.082;2023-02-28T09:25:00;3.15;52.79
67641;SHT31;54434;50.096;20.082;2023-02-28T09:27:37;3.08;52.86
67641;SHT31;54434;50.096;20.082;2023-02-28T09:30:14;3.18;53.95
67641;SHT31;54434;50.096;20.082;2023-02-28T09:32:52;3.21;53.40
67641;SHT31;54434;50.096;20.082;2023-02-28T09:35:29;3.14;53.15
67641;SHT31;54434;50.096;20.082;2023-02-28T09:38:05;3.08;53.61
67641;SHT31;54434;50.096;20.082;2023-02-28T09:40:47;3.12;53.61
67641;SHT31;54434;50.096;20.082;2023-02-28T09:43:29;3.18;54.08
67641;SHT31;54434;50.096;20.082;2023-02-28T09:46:14;3.13;53.20
67641;SHT31;54434;50.096;20.082;2023-02-28T09:49:06;2.98;53.68
67641;SHT31;54434;50.096;20.082;2023-02-28T09:51:53;2.89;53.40
67641;SHT31;54434;50.096;20.082;2023-02-28T09:54:35;2.88;53.54
67641;SHT31;54434;50.096;20.082;2023-02-28T09:57:22;2.84;53.89
67641;SHT31;54434;50.096;20.082;2023-02-28T10:00:14;2.81;54.51
67641;SHT31;54434;50.096;20.082;2023-02-28T10:03:06;2.78;54.14
67641;SHT31;54434;50.096;20.082;2023-02-28T10:06:13;2.73;54.45
67641;SHT31;54434;50.096;20.082;2023-02-28T10:08:55;2.71;54.71
67641;SHT31;54434;50.096;20.082;2023-02-28T10:11:40;2.72;54.61
67641;SHT31;54434;50.096;20.082;2023-02-28T10:14:20;2.79;54.64
67641;SHT31;54434;50.096;20.082;2023-02-28T10:17:03;2.74;54.01
67641;SHT31;54434;50.096;20.082;2023-02-28T10:19:49;2.68;54.63
67641;SHT31;54434;50.096;20.082;2023-02-28T10:22:43;2.66;54.96
67641;SHT31;54434;50.096;20.082;2023-02-28T10:25:39;2.54;54.55
67641;SHT31;54434;50.096;20.082;2023-02-28T10:28:24;2.55;54.48
67641;SHT31;54434;50.096;20.082;2023-02-28T10:31:04;2.61;54.71
67641;SHT31;54434;50.096;20.082;2023-02-28T10:33:45;2.60;53.84
67641;SHT31;54434;50.096;20.082;2023-02-28T10:36:23;2.57;54.33
67641;SHT31;54434;50.096;20.082;2023-02-28T10:39:00;2.51;54.07
67641;SHT31;54434;50.096;20.082;2023-02-28T10:42:22;2.46;54.49
67641;SHT31;54434;50.096;20.082;2023-02-28T10:45:13;2.40;55.33
67641;SHT31;54434;50.096;20.082;2023-02-28T10:47:53;2.24;54.65
67641;SHT31;54434;50.096;20.082;2023-02-28T10:50:39;2.27;55.60
67641;SHT31;54434;50.096;20.082;2023-02-28T10:53:33;2.38;56.09
67641;SHT31;54434;50.096;20.082;2023-02-28T10:56:32;2.45;55.70
67641;SHT31;54434;50.096;20.082;2023-02-28T10:59:29;2.40;55.27
67641;SHT31;54434;50.096;20.082;2023-02-28T11:02:30;2.39;55.55
67641;SHT31;54434;50.096;20.082;2023-02-28T11:05:26;2.35;55.65
67641;SHT31;54434;50.096;20.082;2023-02-28T11:08:10;2.40;56.09
67641;SHT31;54434;50.096;20.082;2023-02-28T11:10:55;2.47;56.27
67641;SHT31;54434;50.096;20.082;2023-02-28T11:13:36;2.48;55.26
67641;SHT31;54434;50.096;20.082;2023-02-28T11:16:14;2.49;55.39
67641;SHT31;54434;50.096;20.082;2023-02-28T11:18:52;2.54;55.42
67641;SHT31;54434;50.096;20.082;2023-02-28T11:21:33;2.56;55.77
67641;SHT31;54434;50.096;20.082;2023-02-28T11:24:18;2.57;56.13
67641;SHT31;54434;50.096;20.082;2023-02-28T11:27:01;2.55;55.79
67641;SHT31;54434;50.096;20.082;2023-02-28T11:29:39;2.53;55.28
67641;SHT31;54434;50.096;20.082;2023-02-28T11:32:23;2.54;55.45
67641;SHT31;54434;50.096;20.082;2023-02-28T11:35:03;2.53;55.26
67641;SHT31;54434;50.096;20.082;2023-02-28T11:37:54;2.49;54.96
67641;SHT31;54434;50.096;20.082;2023-02-28T11:40:38;2.54;55.45
67641;SHT31;54434;50.096;20.082;2023-02-28T11:43:32;2.64;56.51
67641;SHT31;54434;50.096;20.082;2023-02-28T11:46:33;2.69;55.44
67641;SHT31;54434;50.096;20.082;2023-02-28T11:49:27;2.68;55.45
67641;SHT31;54434;50.096;20.082;2023-02-28T11:52:22;2.64;55.10
67641;SHT31;54434;50.096;20.082;2023-02-28T11:55:19;2.67;55.77
67641;SHT31;54434;50.096;20.082;2023-02-28T11:58:23;2.65;55.02
67641;SHT31;54434;50.096;20.082;2023-02-28T12:01:17;2.59;54.73
67641;SHT31;54434;50.096;20.082;2023-02-28T12:04:21;2.57;54.62
67641;SHT31;54434;50.096;20.082;2023-02-28T12:07:09;2.57;55.15
67641;SHT31;54434;50.096;20.082;2023-02-28T12:10:02;2.58;55.80
67641;SHT31;54434;50.096;20.082;2023-02-28T12:12:58;2.58;55.84
67641;SHT31;54434;50.096;20.082;2023-02-28T12:16:00;2.64;56.95
67641;SHT31;54434;50.096;20.082;2023-02-28T12:19:07;2.66;55.76
67641;SHT31;54434;50.096;20.082;2023-02-28T12:25:46;2.68;56.10
67641;SHT31;54434;50.096;20.082;2023-02-28T12:28:45;2.65;55.91
67641;SHT31;54434;50.096;20.082;2023-02-28T12:31:26;2.66;56.05
67641;SHT31;54434;50.096;20.082;2023-02-28T12:34:11;2.67;55.81
67641;SHT31;54434;50.096;20.082;2023-02-28T12:36:52;2.68;55.81
67641;SHT31;54434;50.096;20.082;2023-02-28T12:39:33;2.69;56.28
67641;SHT31;54434;50.096;20.082;2023-02-28T12:42:26;2.69;56.43
67641;SHT31;54434;50.096;20.082;2023-02-28T12:45:10;2.71;56.87
67641;SHT31;54434;50.096;20.082;2023-02-28T12:47:55;2.71;55.99
67641;SHT31;54434;50.096;20.082;2023-02-28T12:50:37;2.72;55.32
67641;SHT31;54434;50.096;20.082;2023-02-28T12:53:17;2.71;56.01
67641;SHT31;54434;50.096;20.082;2023-02-28T12:56:12;2.69;55.90
67641;SHT31;54434;50.096;20.082;2023-02-28T12:58:56;2.70;55.88
67641;SHT31;54434;50.096;20.082;2023-02-28T13:01:45;2.72;56.26
67641;SHT31;54434;50.096;20.082;2023-02-28T13:05:10;2.77;56.38
67641;SHT31;54434;50.096;20.082;2023-02-28T13:08:51;2.72;55.95
67641;SHT31;54434;50.096;20.082;2023-02-28T13:11:47;2.73;56.10
67641;SHT31;54434;50.096;20.082;2023-02-28T13:14:28;2.74;56.00
67641;SHT31;54434;50.096;20.082;2023-02-28T13:17:16;2.75;56.10
67641;SHT31;54434;50.096;20.082;2023-02-28T13:20:00;2.76;56.14
67641;SHT31;54434;50.096;20.082;2023-02-28T13:22:48;2.73;55.68
67641;SHT31;54434;50.096;20.082;2023-02-28T13:25:52;2.74;55.92
67641;SHT31;54434;50.096;20.082;2023-02-28T13:29:00;2.76;55.81
67641;SHT31;54434;50.096;20.082;2023-02-28T13:32:30;2.73;55.86
67641;SHT31;54434;50.096;20.082;2023-02-28T13:35:16;2.74;55.20
67641;SHT31;54434;50.096;20.082;2023-02-28T13:38:34;2.71;55.44
67641;SHT31;54434;50.096;20.082;2023-02-28T13:45:28;2.69;56.29
67641;SHT31;54434;50.096;20.082;2023-02-28T13:48:19;2.67;56.55
67641;SHT31;54434;50.096;20.082;2023-02-28T13:54:23;2.69;56.72
67641;SHT31;54434;50.096;20.082;2023-02-28T13:57:23;2.71;56.74
67641;SHT31;54434;50.096;20.082;2023-02-28T14:00:28;2.69;56.63
67641;SHT31;54434;50.096;20.082;2023-02-28T14:03:26;2.72;57.02
67641;SHT31;54434;50.096;20.082;2023-02-28T14:06:24;2.72;56.32
67641;SHT31;54434;50.096;20.082;2023-02-28T14:09:06;2.71;56.20
67641;SHT31;54434;50.096;20.082;2023-02-28T14:11:57;2.69;56.39
67641;SHT31;54434;50.096;20.082;2023-02-28T14:15:48;2.73;56.67
67641;SHT31;54434;50.096;20.082;2023-02-28T14:18:33;2.77;57.51
67641;SHT31;54434;50.096;20.082;2023-02-28T14:21:19;2.80;58.37
67641;SHT31;54434;50.096;20.082;2023-02-28T14:27:45;2.79;57.85
67641;SHT31;54434;50.096;20.082;2023-02-28T14:30:51;2.78;57.71
67641;SHT31;54434;50.096;20.082;2023-02-28T14:33:40;2.74;57.21
67641;SHT31;54434;50.096;20.082;2023-02-28T14:36:37;2.71;57.09
67641;SHT31;54434;50.096;20.082;2023-02-28T14:39:19;2.66;57.43
67641;SHT31;54434;50.096;20.082;2023-02-28T14:41:58;2.62;58.08
67641;SHT31;54434;50.096;20.082;2023-02-28T14:44:37;2.61;57.82
67641;SHT31;54434;50.096;20.082;2023-02-28T14:47:15;2.60;58.03
67641;SHT31;54434;50.096;20.082;2023-02-28T14:49:53;2.60;58.24
67641;SHT31;54434;50.096;20.082;2023-02-28T14:52:32;2.58;57.88
67641;SHT31;54434;50.096;20.082;2023-02-28T14:55:14;2.57;58.03
67641;SHT31;54434;50.096;20.082;2023-02-28T14:57:55;2.53;57.54
67641;SHT31;54434;50.096;20.082;2023-02-28T15:00:39;2.47;57.78
67641;SHT31;54434;50.096;20.082;2023-02-28T15:03:29;2.45;58.10
67641;SHT31;54434;50.096;20.082;2023-02-28T15:06:14;2.43;58.38
67641;SHT31;54434;50.096;20.082;2023-02-28T15:09:14;2.41;58.72
67641;SHT31;54434;50.096;20.082;2023-02-28T15:11:53;2.38;58.70
67641;SHT31;54434;50.096;20.082;2023-02-28T15:14:30;2.37;58.89
67641;SHT31;54434;50.096;20.082;2023-02-28T15:17:14;2.35;59.01
67641;SHT31;54434;50.096;20.082;2023-02-28T15:19:58;2.31;59.06
67641;SHT31;54434;50.096;20.082;2023-02-28T15:22:37;2.27;58.98
67641;SHT31;54434;50.096;20.082;2023-02-28T15:25:17;2.25;58.97
67641;SHT31;54434;50.096;20.082;2023-02-28T15:27:57;2.24;58.99
67641;SHT31;54434;50.096;20.082;2023-02-28T15:30:34;2.23;58.96
67641;SHT31;54434;50.096;20.082;2023-02-28T15:33:21;2.21;58.83
67641;SHT31;54434;50.096;20.082;2023-02-28T15:36:12;2.18;58.85
67641;SHT31;54434;50.096;20.082;2023-02-28T15:38:53;2.14;59.18
67641;SHT31;54434;50.096;20.082;2023-02-28T15:41:45;2.13;59.38
67641;SHT31;54434;50.096;20.082;2023-02-28T15:44:30;2.09;59.20
67641;SHT31;54434;50.096;20.082;2023-02-28T15:47:17;2.03;59.44
67641;SHT31;54434;50.096;20.082;2023-02-28T15:49:58;1.97;59.75
67641;SHT31;54434;50.096;20.082;2023-02-28T15:52:43;1.93;60.08
67641;SHT31;54434;50.096;20.082;2023-02-28T15:55:22;1.87;60.30
67641;SHT31;54434;50.096;20.082;2023-02-28T15:58:03;1.81;60.58
67641;SHT31;54434;50.096;20.082;2023-02-28T16:00:59;1.78;61.02
67641;SHT31;54434;50.096;20.082;2023-02-28T16:03:59;1.73;61.42
67641;SHT31;54434;50.096;20.082;2023-02-28T16:06:41;1.66;61.61
67641;SHT31;54434;50.096;20.082;2023-02-28T16:09:18;1.61;61.92
67641;SHT31;54434;50.096;20.082;2023-02-28T16:11:56;1.55;62.25
67641;SHT31;54434;50.096;20.082;2023-02-28T16:14:37;1.50;62.67
67641;SHT31;54434;50.096;20.082;2023-02-28T16:17:16;1.45;62.98
67641;SHT31;54434;50.096;20.082;2023-02-28T16:19:58;1.39;63.47
67641;SHT31;54434;50.096;20.082;2023-02-28T16:22:39;1.35;63.86
67641;SHT31;54434;50.096;20.082;2023-02-28T16:25:19;1.30;64.16
67641;SHT31;54434;50.096;20.082;2023-02-28T16:28:02;1.24;64.40
67641;SHT31;54434;50.096;20.082;2023-02-28T16:30:45;1.18;64.13
67641;SHT31;54434;50.096;20.082;2023-02-28T16:33:24;1.11;64.47
67641;SHT31;54434;50.096;20.082;2023-02-28T16:36:01;1.04;64.81
67641;SHT31;54434;50.096;20.082;2023-02-28T16:39:05;0.98;64.98
67641;SHT31;54434;50.096;20.082;2023-02-28T16:41:45;0.90;65.20
67641;SHT31;54434;50.096;20.082;2023-02-28T16:44:29;0.83;65.64
67641;SHT31;54434;50.096;20.082;2023-02-28T16:47:10;0.75;66.02
67641;SHT31;54434;50.096;20.082;2023-02-28T16:49:48;0.67;66.49
67641;SHT31;54434;50.096;20.082;2023-02-28T16:52:25;0.58;66.62
67641;SHT31;54434;50.096;20.082;2023-02-28T16:55:03;0.52;66.99
67641;SHT31;54434;50.096;20.082;2023-02-28T16:57:41;0.44;67.46
67641;SHT31;54434;50.096;20.082;2023-02-28T17:00:22;0.36;67.94
67641;SHT31;54434;50.096;20.082;2023-02-28T17:03:03;0.28;68.31
67641;SHT31;54434;50.096;20.082;2023-02-28T17:05:43;0.22;68.61
67641;SHT31;54434;50.096;20.082;2023-02-28T17:08:20;0.14;68.89
67641;SHT31;54434;50.096;20.082;2023-02-28T17:10:57;0.07;69.18
67641;SHT31;54434;50.096;20.082;2023-02-28T17:13:34;0.03;69.28
67641;SHT31;54434;50.096;20.082;2023-02-28T17:16:15;-0.04;69.40
67641;SHT31;54434;50.096;20.082;2023-02-28T17:19:02;-0.11;69.54
67641;SHT31;54434;50.096;20.082;2023-02-28T17:21:42;-0.16;69.74
67641;SHT31;54434;50.096;20.082;2023-02-28T17:24:20;-0.20;69.95
67641;SHT31;54434;50.096;20.082;2023-02-28T17:27:02;-0.26;70.01